METAR Data
IDs: Format: Raw Decoded Include TAF

Data at: 1938 UTC 28 Nov 2022

KORS 281935Z AUTO 02011G17KT 360V060 10SM BKN070 03/M10 A2995 RMK AO2